Ana Sayfa
METAR-TAF:

METAR-TAF

Havaalanları :

Tahiti, Fransız Polinezyası

Enlem: 17-33S, Boylam: 149-37W, yükseklik: 2 m

Güncel hava durumu gözlemi

Rapor saat 22:00 UTC de 19 dakika önce yapıldı.
Rüzgar doğu/kuzeydoğudan 14 kt
Sıcaklık 29°C
Nem 62%
Basınç 1014 hPa
Görüş mesafesi 10 km veya daha fazla
3000 ft yükseklikte az bulutlu

METAR: NTAA 222200Z 06014KT 9999 FEW030 29/21 Q1014 WS ALL RWY NOSIG

Saat: 12:19 (22:19 UTC)

Tahmin

Rapor saat 17:00 UTC de 5 saat ve 19 dakika önce yapıldı.
Ayın 22'si saat 18 UTC'den ayın 23'si saat 24 UTC'ye kadar geçerli Tahmin
Rüzgar kuzeydoğudan 13 kt
Görüş mesafesi 10 km veya daha fazla
2000 ft yükseklikte az bulutlu
Dönüşüyor
ayın 23'si saat 06 UTC'den ayın 23'si saat 08 UTC'ye kadar
Rüzgar değişken yönden 3 kt
Dönüşüyor
ayın 23'si saat 16 UTC'den ayın 23'si saat 18 UTC'ye kadar
Rüzgar kuzeydoğudan 13 kt

TAF: NTAA 221700Z 2218/2324 04013KT 9999 FEW020 BECMG 2306/2308 VRB03KT BECMG 2316/2318 04013KT

4.000'den fazla havaalanı için hava durumu gözlemleri ve tahminleri (METAR ve TAF raporları).

Kullanılabilir istasyonlar harita üzerinde sarı ve kırmızı noktalarla gösterilir.

İstasyonun adını görmek için fareyi noktanın üzerinde gezdirin.

Sonrasında hava gözlem ve tahminlerini görmek için tıklayın.

Haritayı değiştirmek için: yaklaştırmak için siyah artı işaretli yeşil düğmeye ve uzaklaştırmak için de eksi işaretli düğmeye hızla tıklayın; bitişik haritalar için yeşil okları kullanın.


METAR-TAF: